Aérodrome :
LOGIN :

S'inscrire | Disclaimer

   EN    FR    IT 

 










Légende :    VFR   VFR Marginal   IFR   IFR Intensif   IFR Très Intensif
Visi : 
Plafond : 
>= 8 km
>= 3000ft
5 à 8 km
1000 à 3000 ft
1500m à 5 km
500 à 1000 ft
800 à 1500m
200 à 500 ft
< 800m
< 200 ft
Symboles :   Orages  Brouillard  Fortes neiges  Fortes précipitations  Vent > 20 kt
SIGMETs :   Divers  Orages  Givrage  Turbulence  Onde Orograph.  Cendres Volcan.







- Altitude de l'aérodrome : 645 ft
- Code IATA : DLE
- Voir les cartes d'approche


LFGJ - Dole Tavaux

DERNIER METAR :
  • 200800Z AUTO 00000KT 2200 BR BKN048 OVC110 M01/M02 Q1012 TEMPO BKN003 BECMG 4000 BR

METARs EXPIRÉS :
  • 200730Z AUTO 16001KT 2200 BR NSC M01/M03 Q1012 TEMPO BKN003 BECMG 4000 BR
  • 200700Z AUTO VRB01KT 3700 BR NSC M01/M02 Q1011 TEMPO -FZRA BKN003
  • 200630Z AUTO 18002KT 3500 BR NSC M01/M02 Q1011 TEMPO BKN005 BKN015
  • 200600Z AUTO 00000KT 4000 BR NSC M01/M02 Q1011 TEMPO BKN005 BKN015
  • 200530Z AUTO 34001KT 4300 BR SCT045 OVC062 M01/M02 Q1011 TEMPO BKN005 BKN015

TAF AMD TAF LFGJ
Valide du 20 à 07h jusqu'au 20 à 15h UTC


200747Z 2007/2015 VRB02KT 4000 BR NSC
TEMPO 2007/2011 2000 -SNRA BKN003
PROB40
TEMPO 2007/2011 -FZRA
BECMG 2010/2014 9999 NSW BKN035
Pas de NOTAMs connus pour ce terrain.



MET'MAP, la Météo Aéronautique d'un coup d'oeil ! - Copyright ORBIFLY Décembre 2007 - Disclaimer

ORBIFLY MET'MAP TEAM :

Programmation & Développement : Alexandra Zaïnal
Conception & Développement : Baudouin d'Aumeries
Co-Programmation & Développement : Marc-Olivier Méhu
Soutien technique & logistique : Manuel Goepfert

Contact : metmap@orbifly.com




SOURCES & CREDITS :

   NOAA